Svartfoss — V2PR3 — position and weather

sailwx.info

Track history (hours):
 
Tides and Currents Weather Stations Pressure Air Temp Water Temp Dewpoint Dewpoint Depression Visibility Wind Speed Wind Dir Waves Ship Positions

Svartfoss

Last reported at 2016-Sep-21 09:33 UTC. Time now 2016-Sep-26 10:32 UTC.
Position N 69°14' E 017°56'.

Length 80 m; draft 4.8 m.

Type: Cargo ship. MMSI: 304882000.

Date/timePositionNaut miles runAvg speedWind from/ knotsBaromVisibWave heightAir tempDewpointWater temp
2016-Sep-21 09:33N 69°14' E 017°56'1 0.6
2016-Sep-21 08:33N 69°14' E 017°58'306 8.3
2016-Sep-19 19:34N 64°51' E 011°14'5 4.5
2016-Sep-19 18:33N 64°48' E 011°06'5212.9
2016-Sep-19 14:29N 64°09' E 009°44'1515.3
2016-Sep-19 13:29N 63°56' E 009°28'1415.1
2016-Sep-19 12:33N 63°43' E 009°17'1514.1
2016-Sep-19 11:31N 63°29' E 009°03'3115.6
2016-Sep-19 09:33N 63°15' E 008°03'11 5.3
2016-Sep-19 07:34N 63°07' E 007°46'0 0.0
2016-Sep-19 06:34N 63°07' E 007°46'5 1.5
2016-Sep-19 03:34N 63°03' E 007°40'3 3.4
2016-Sep-19 02:34N 63°07' E 007°41'14 7.1
2016-Sep-19 00:33N 63°02' E 007°11'206 7.9
2016-Sep-17 22:33N 59°43' E 005°26'2713.2
2016-Sep-17 20:32N 59°16' E 005°20'1915.2
2016-Sep-17 19:16N 58°57' E 005°20'37 6.4
2016-Sep-17 13:34N 58°27' E 005°59'6 6.4
2016-Sep-17 12:33N 58°22' E 005°51'26513.9
2016-Sep-16 17:28N 57°09' W 002°05'0 0.0
2016-Sep-16 15:25N 57°09' W 002°05'0 0.0
2016-Sep-16 12:31N 57°09' W 002°05'0 0.0
2016-Sep-16 09:31N 57°09' W 002°05'15613.7
2016-Sep-15 22:03N 54°44' W 000°21'816.9
2016-Sep-15 21:33N 54°36' W 000°16'1717.2
2016-Sep-15 20:33N 54°20' W 000°05'3416.8
2016-Sep-15 18:33N 53°48' E 000°16'18 3.0
2016-Sep-15 12:33N 53°35' W 000°04'0 0.0
2016-Sep-15 11:27N 53°35' W 000°04'0 0.0
2016-Sep-15 04:33N 53°35' W 000°04'0 0.0
2016-Sep-15 03:33N 53°35' W 000°04'0 0.0
2016-Sep-15 01:33N 53°35' W 000°04'0 0.0
2016-Sep-14 22:33N 53°35' W 000°04'0 0.0
2016-Sep-14 21:33N 53°35' W 000°04'0 0.0
2016-Sep-14 17:32N 53°35' W 000°04'0 0.0
2016-Sep-14 16:33N 53°35' W 000°04'0 0.0
2016-Sep-14 13:32N 53°35' W 000°04'0 0.0
2016-Sep-14 12:32N 53°35' W 000°04'0 0.0
2016-Sep-14 10:32N 53°35' W 000°04'0 0.0
2016-Sep-14 09:32N 53°35' W 000°04'0 0.0
2016-Sep-14 08:32N 53°35' W 000°04'0 0.0
2016-Sep-14 07:32N 53°35' W 000°04'0 0.0
2016-Sep-14 06:32N 53°35' W 000°04'0 0.0
2016-Sep-14 03:29N 53°35' W 000°04'0 0.0
2016-Sep-13 22:32N 53°35' W 000°04'0 0.0
2016-Sep-13 20:32N 53°35' W 000°04'0 0.0
2016-Sep-13 18:32N 53°35' W 000°04'0 0.0
2016-Sep-13 17:32N 53°35' W 000°04'0 0.0
2016-Sep-13 16:32N 53°35' W 000°04'5 1.0
2016-Sep-13 11:28N 53°38' W 000°11'0 0.2
2016-Sep-13 09:31N 53°38' W 000°12'0 0.0
2016-Sep-13 07:31N 53°38' W 000°12'0 0.0
2016-Sep-13 06:33N 53°38' W 000°12'12 5.9
2016-Sep-13 04:33N 53°34' E 000°07'21 8.9
2016-Sep-13 02:14N 53°26' E 000°39'3212.0
2016-Sep-12 23:33N 53°13' E 001°28'3215.8
2016-Sep-12 21:33N 52°58' E 002°15'6415.3
2016-Sep-12 17:22N 52°35' E 003°54'27 9.7
2016-Sep-12 14:33N 52°28' E 004°37'2 1.9
2016-Sep-12 13:31N 52°28' E 004°40'0 0.0
2016-Sep-12 12:31N 52°28' E 004°40'0 0.0
2016-Sep-12 11:28N 52°28' E 004°40'0 0.0
2016-Sep-12 10:31N 52°28' E 004°40'0 0.0
2016-Sep-12 07:31N 52°28' E 004°40'0 0.0
2016-Sep-12 06:31N 52°28' E 004°40'0 0.0
2016-Sep-12 03:31N 52°28' E 004°40'0 0.0
2016-Sep-12 01:31N 52°28' E 004°40'0 0.0
2016-Sep-11 23:33N 52°28' E 004°40'0 0.0
2016-Sep-11 22:33N 52°28' E 004°40'1 0.8
2016-Sep-11 21:33N 52°28' E 004°39'4 4.0
2016-Sep-11 20:33N 52°28' E 004°32'1312.7
2016-Sep-11 19:33N 52°38' E 004°19'1615.7
2016-Sep-11 18:32N 52°53' E 004°26'1515.4
2016-Sep-11 17:32N 53°09' E 004°31'  
Track history (hours):
 
Tides and Currents Weather Stations Pressure Air Temp Water Temp Dewpoint Dewpoint Depression Visibility Wind Speed Wind Dir Waves Ship Positions

Svartfoss

Last reported at 2016-Sep-21 09:33 UTC. Time now 2016-Sep-26 10:32 UTC.
Position N 69°14' E 017°56'.

Length 80 m; draft 4.8 m.

Type: Cargo ship. MMSI: 304882000.

Date/timePositionNaut miles runAvg speedWind from/ knotsBaromVisibWave heightAir tempDewpointWater temp
2016-Sep-21 09:33N 69°14' E 017°56'1 0.6
2016-Sep-21 08:33N 69°14' E 017°58'306 8.3
2016-Sep-19 19:34N 64°51' E 011°14'5 4.5
2016-Sep-19 18:33N 64°48' E 011°06'5212.9
2016-Sep-19 14:29N 64°09' E 009°44'1515.3
2016-Sep-19 13:29N 63°56' E 009°28'1415.1
2016-Sep-19 12:33N 63°43' E 009°17'1514.1
2016-Sep-19 11:31N 63°29' E 009°03'3115.6
2016-Sep-19 09:33N 63°15' E 008°03'11 5.3
2016-Sep-19 07:34N 63°07' E 007°46'0 0.0
2016-Sep-19 06:34N 63°07' E 007°46'5 1.5
2016-Sep-19 03:34N 63°03' E 007°40'3 3.4
2016-Sep-19 02:34N 63°07' E 007°41'14 7.1
2016-Sep-19 00:33N 63°02' E 007°11'206 7.9
2016-Sep-17 22:33N 59°43' E 005°26'2713.2
2016-Sep-17 20:32N 59°16' E 005°20'1915.2
2016-Sep-17 19:16N 58°57' E 005°20'37 6.4
2016-Sep-17 13:34N 58°27' E 005°59'6 6.4
2016-Sep-17 12:33N 58°22' E 005°51'26513.9
2016-Sep-16 17:28N 57°09' W 002°05'0 0.0
2016-Sep-16 15:25N 57°09' W 002°05'0 0.0
2016-Sep-16 12:31N 57°09' W 002°05'0 0.0
2016-Sep-16 09:31N 57°09' W 002°05'15613.7
2016-Sep-15 22:03N 54°44' W 000°21'816.9
2016-Sep-15 21:33N 54°36' W 000°16'1717.2
2016-Sep-15 20:33N 54°20' W 000°05'3416.8
2016-Sep-15 18:33N 53°48' E 000°16'18 3.0
2016-Sep-15 12:33N 53°35' W 000°04'0 0.0
2016-Sep-15 11:27N 53°35' W 000°04'0 0.0
2016-Sep-15 04:33N 53°35' W 000°04'0 0.0
2016-Sep-15 03:33N 53°35' W 000°04'0 0.0
2016-Sep-15 01:33N 53°35' W 000°04'0 0.0
2016-Sep-14 22:33N 53°35' W 000°04'0 0.0
2016-Sep-14 21:33N 53°35' W 000°04'0 0.0
2016-Sep-14 17:32N 53°35' W 000°04'0 0.0
2016-Sep-14 16:33N 53°35' W 000°04'0 0.0
2016-Sep-14 13:32N 53°35' W 000°04'0 0.0
2016-Sep-14 12:32N 53°35' W 000°04'0 0.0
2016-Sep-14 10:32N 53°35' W 000°04'0 0.0
2016-Sep-14 09:32N 53°35' W 000°04'0 0.0
2016-Sep-14 08:32N 53°35' W 000°04'0 0.0
2016-Sep-14 07:32N 53°35' W 000°04'0 0.0
2016-Sep-14 06:32N 53°35' W 000°04'0 0.0
2016-Sep-14 03:29N 53°35' W 000°04'0 0.0
2016-Sep-13 22:32N 53°35' W 000°04'0 0.0
2016-Sep-13 20:32N 53°35' W 000°04'0 0.0
2016-Sep-13 18:32N 53°35' W 000°04'0 0.0
2016-Sep-13 17:32N 53°35' W 000°04'0 0.0
2016-Sep-13 16:32N 53°35' W 000°04'5 1.0
2016-Sep-13 11:28N 53°38' W 000°11'0 0.2
2016-Sep-13 09:31N 53°38' W 000°12'0 0.0
2016-Sep-13 07:31N 53°38' W 000°12'0 0.0
2016-Sep-13 06:33N 53°38' W 000°12'12 5.9
2016-Sep-13 04:33N 53°34' E 000°07'21 8.9
2016-Sep-13 02:14N 53°26' E 000°39'3212.0
2016-Sep-12 23:33N 53°13' E 001°28'3215.8
2016-Sep-12 21:33N 52°58' E 002°15'6415.3
2016-Sep-12 17:22N 52°35' E 003°54'27 9.7
2016-Sep-12 14:33N 52°28' E 004°37'2 1.9
2016-Sep-12 13:31N 52°28' E 004°40'0 0.0
2016-Sep-12 12:31N 52°28' E 004°40'0 0.0
2016-Sep-12 11:28N 52°28' E 004°40'0 0.0
2016-Sep-12 10:31N 52°28' E 004°40'0 0.0
2016-Sep-12 07:31N 52°28' E 004°40'0 0.0
2016-Sep-12 06:31N 52°28' E 004°40'0 0.0
2016-Sep-12 03:31N 52°28' E 004°40'0 0.0
2016-Sep-12 01:31N 52°28' E 004°40'0 0.0
2016-Sep-11 23:33N 52°28' E 004°40'0 0.0
2016-Sep-11 22:33N 52°28' E 004°40'1 0.8
2016-Sep-11 21:33N 52°28' E 004°39'4 4.0
2016-Sep-11 20:33N 52°28' E 004°32'1312.7
2016-Sep-11 19:33N 52°38' E 004°19'1615.7
2016-Sep-11 18:32N 52°53' E 004°26'1515.4
2016-Sep-11 17:32N 53°09' E 004°31'  

Dump ship's entire track history